createdAt,value
2023-04-29T00:01:27.569Z,100290.88
2023-04-29T00:03:54.859Z,100280.31
2023-04-29T00:06:22.615Z,100285.91
2023-04-29T00:08:49.930Z,100282.78
2023-04-29T00:11:16.937Z,100280.47
2023-04-29T00:13:44.081Z,100278.06
2023-04-29T00:16:11.310Z,100274.53
2023-04-29T00:18:38.457Z,100279.56
2023-04-29T00:21:06.092Z,100277.09
2023-04-29T00:23:34.367Z,100281.13
2023-04-29T00:26:01.589Z,100268.72
2023-04-29T00:28:28.617Z,100271.72
2023-04-29T00:30:56.265Z,100273.69
2023-04-29T00:33:23.600Z,100261.31
2023-04-29T00:35:50.926Z,100261.50
2023-04-29T00:38:17.958Z,100260.81
2023-04-29T00:40:45.394Z,100269.91
2023-04-29T00:43:12.799Z,100270.69
2023-04-29T00:45:40.267Z,100259.31
2023-04-29T00:48:08.032Z,100267.28
2023-04-29T00:50:36.793Z,100267.28
2023-04-29T00:53:04.483Z,100255.97
2023-04-29T00:55:32.927Z,100258.16
2023-04-29T00:58:00.742Z,100247.47
2023-04-29T01:00:28.497Z,100246.84
2023-04-29T01:02:57.192Z,100251.44
2023-04-29T01:05:25.174Z,100251.72
2023-04-29T01:08:28.542Z,100247.53
2023-04-29T01:11:12.982Z,100248.47
2023-04-29T01:14:00.701Z,100248.59
2023-04-29T01:16:49.592Z,100244.28
2023-04-29T01:19:47.753Z,100260.66
2023-04-29T01:22:17.660Z,100250.53
2023-04-29T01:24:44.971Z,100249.94
2023-04-29T01:27:54.217Z,100244.88
2023-04-29T01:31:04.799Z,100252.38
2023-04-29T01:33:39.537Z,100244.88
2023-04-29T01:36:29.062Z,100252.31
2023-04-29T01:39:37.249Z,100243.41
2023-04-29T01:42:17.652Z,100245.66
2023-04-29T01:44:46.717Z,100249.09
2023-04-29T01:47:14.833Z,100246.44
2023-04-29T01:49:41.812Z,100245.78
2023-04-29T01:52:08.804Z,100245.78
2023-04-29T01:54:36.536Z,100254.13
2023-04-29T01:57:03.877Z,100248.34
2023-04-29T01:59:31.718Z,100245.59
2023-04-29T02:01:59.047Z,100250.19
2023-04-29T02:04:27.851Z,100248.03
2023-04-29T02:06:54.926Z,100255.25
2023-04-29T02:09:21.901Z,100228.50
2023-04-29T02:11:48.898Z,100237.81
2023-04-29T02:14:15.946Z,100244.56
2023-04-29T02:16:46.083Z,100252.47
2023-04-29T02:23:23.028Z,100237.81
2023-04-29T02:25:50.020Z,100228.41
2023-04-29T02:28:17.868Z,100233.97
2023-04-29T02:30:45.242Z,100233.53
2023-04-29T02:33:12.377Z,100232.13
2023-04-29T02:35:39.394Z,100220.38
2023-04-29T02:38:06.366Z,100222.88
2023-04-29T02:40:33.416Z,100240.16
2023-04-29T02:43:01.614Z,100221.47
2023-04-29T02:45:28.582Z,100232.34
2023-04-29T02:47:55.629Z,100223.13
2023-04-29T02:50:22.656Z,100225.84
2023-04-29T02:52:49.625Z,100217.50
2023-04-29T02:55:17.174Z,100220.69
2023-04-29T02:57:44.540Z,100211.97
2023-04-29T03:00:12.007Z,100221.69
2023-04-29T03:02:39.258Z,100229.88
2023-04-29T03:05:06.738Z,100219.41
2023-04-29T03:07:34.326Z,100221.66
2023-04-29T03:10:01.689Z,100217.50
2023-04-29T03:12:28.702Z,100222.19
2023-04-29T03:14:55.677Z,100219.41
2023-04-29T03:17:22.714Z,100208.91
2023-04-29T03:19:51.326Z,100218.53
2023-04-29T03:22:18.683Z,100217.75
2023-04-29T03:24:45.801Z,100214.34
2023-04-29T03:27:12.781Z,100215.69
2023-04-29T03:29:39.802Z,100213.94
2023-04-29T03:32:07.356Z,100218.00
2023-04-29T03:34:34.423Z,100222.47
2023-04-29T03:37:01.484Z,100219.66
2023-04-29T03:39:32.397Z,100221.25
2023-04-29T03:42:00.156Z,100220.19
2023-04-29T03:44:29.044Z,100220.72
2023-04-29T03:46:56.034Z,100218.63
2023-04-29T03:49:23.802Z,100211.25
2023-04-29T03:51:50.971Z,100236.34
2023-04-29T03:54:18.236Z,100213.91
2023-04-29T03:56:45.205Z,100210.22
2023-04-29T03:59:12.201Z,100220.59
2023-04-29T04:01:39.189Z,100208.84
2023-04-29T04:04:06.416Z,100213.75
2023-04-29T04:06:33.570Z,100215.44
2023-04-29T04:09:00.599Z,100219.19
2023-04-29T04:11:27.741Z,100221.94
2023-04-29T04:13:54.772Z,100211.34
2023-04-29T04:16:21.918Z,100204.81
2023-04-29T04:18:49.324Z,100211.88
2023-04-29T04:21:16.372Z,100210.72
2023-04-29T04:23:44.165Z,100210.06
2023-04-29T04:26:11.236Z,100209.13
2023-04-29T04:28:38.420Z,100190.53
2023-04-29T04:31:06.437Z,100199.88
2023-04-29T04:33:34.579Z,100206.34
2023-04-29T04:36:01.690Z,100197.47
2023-04-29T04:38:28.696Z,100200.34
2023-04-29T04:40:55.710Z,100188.56
2023-04-29T04:43:22.931Z,100180.94
2023-04-29T04:45:50.127Z,100190.53
2023-04-29T04:48:17.105Z,100186.66
2023-04-29T04:50:44.104Z,100178.22
2023-04-29T04:53:11.257Z,100193.94
2023-04-29T04:55:38.392Z,100184.31
2023-04-29T04:58:05.448Z,100198.81
2023-04-29T05:00:32.467Z,100173.91
2023-04-29T05:02:59.652Z,100183.06
2023-04-29T05:05:26.879Z,100186.09
2023-04-29T05:07:53.886Z,100184.69
2023-04-29T05:10:20.971Z,100175.06
2023-04-29T05:12:48.264Z,100184.69
2023-04-29T05:15:16.790Z,100198.59
2023-04-29T05:17:43.837Z,100188.00
2023-04-29T05:20:11.408Z,100190.75
2023-04-29T05:22:38.458Z,100185.09
2023-04-29T05:25:06.202Z,100191.44
2023-04-29T05:27:33.235Z,100184.25
2023-04-29T05:30:00.264Z,100185.94
2023-04-29T05:32:27.449Z,100181.06
2023-04-29T05:34:54.456Z,100172.41
2023-04-29T05:37:21.468Z,100170.75
2023-04-29T05:39:48.450Z,100166.91
2023-04-29T05:42:15.793Z,100172.28
2023-04-29T05:44:42.773Z,100162.63
2023-04-29T05:47:09.865Z,100164.66
2023-04-29T05:49:36.931Z,100172.09
2023-04-29T05:52:06.513Z,100170.09
2023-04-29T05:54:34.580Z,100166.81
2023-04-29T05:57:02.563Z,100167.25
2023-04-29T05:59:33.443Z,100164.31
2023-04-29T06:02:01.461Z,100166.44
2023-04-29T06:04:28.712Z,100177.53
2023-04-29T06:06:57.548Z,100171.72
2023-04-29T06:09:28.276Z,100173.06
2023-04-29T06:11:56.249Z,100170.41
2023-04-29T06:14:23.667Z,100168.28
2023-04-29T06:16:50.797Z,100172.44
2023-04-29T06:19:17.889Z,100149.28
2023-04-29T06:21:44.913Z,100159.31
2023-04-29T06:24:11.874Z,100160.06
2023-04-29T06:26:38.930Z,100162.25
2023-04-29T06:29:06.001Z,100167.94
2023-04-29T06:31:33.120Z,100166.09
2023-04-29T06:34:00.227Z,100159.50
2023-04-29T06:36:28.366Z,100160.91
2023-04-29T06:38:55.688Z,100155.34
2023-04-29T06:41:23.766Z,100170.13
2023-04-29T06:43:51.282Z,100156.13
2023-04-29T06:46:18.329Z,100160.16
2023-04-29T06:48:45.967Z,100155.69
2023-04-29T06:51:13.401Z,100166.38
2023-04-29T06:53:40.714Z,100156.03
2023-04-29T06:56:08.088Z,100159.81
2023-04-29T06:58:35.093Z,100158.63
2023-04-29T07:01:04.287Z,100162.03
2023-04-29T07:03:31.449Z,100157.81
2023-04-29T07:05:58.518Z,100155.19
2023-04-29T07:08:25.613Z,100146.44
2023-04-29T07:10:57.292Z,100151.00
2023-04-29T07:13:27.450Z,100144.94
2023-04-29T07:15:54.517Z,100147.09
2023-04-29T07:18:21.629Z,100135.78
2023-04-29T07:20:49.670Z,100141.38
2023-04-29T07:23:16.813Z,100149.09
2023-04-29T07:25:43.836Z,100142.03
2023-04-29T07:28:11.009Z,100146.25
2023-04-29T07:30:38.676Z,100157.97
2023-04-29T07:33:05.765Z,100148.88
2023-04-29T07:35:33.265Z,100149.16
2023-04-29T07:38:00.302Z,100142.94
2023-04-29T07:40:27.338Z,100146.25
2023-04-29T07:42:54.375Z,100145.50
2023-04-29T07:45:21.406Z,100142.16
2023-04-29T07:47:48.439Z,100145.50
2023-04-29T07:50:16.328Z,100137.69
2023-04-29T07:52:43.338Z,100143.44
2023-04-29T07:55:10.319Z,100119.47
2023-04-29T07:57:37.475Z,100141.97
2023-04-29T08:00:05.142Z,100140.16
2023-04-29T08:02:32.805Z,100134.44
2023-04-29T08:05:01.120Z,100144.84
2023-04-29T08:07:28.618Z,100143.06
2023-04-29T08:09:55.838Z,100152.13
2023-04-29T08:12:22.820Z,100140.38
2023-04-29T08:14:49.783Z,100144.44
2023-04-29T08:17:16.754Z,100143.84
2023-04-29T08:19:44.594Z,100146.81
2023-04-29T08:22:12.343Z,100128.53
2023-04-29T08:24:39.383Z,100143.59
2023-04-29T08:27:06.746Z,100133.56
2023-04-29T08:29:34.412Z,100128.50
2023-04-29T08:32:01.731Z,100140.78
2023-04-29T08:34:28.904Z,100141.22
2023-04-29T08:36:57.614Z,100131.44
2023-04-29T08:39:25.407Z,100133.22
2023-04-29T08:41:53.595Z,100122.69
2023-04-29T08:44:21.597Z,100127.00
2023-04-29T08:46:49.326Z,100119.28
2023-04-29T08:49:16.340Z,100124.63
2023-04-29T08:51:43.319Z,100110.63
2023-04-29T08:54:11.780Z,100112.00
2023-04-29T08:56:39.591Z,100115.38
2023-04-29T08:59:10.680Z,100137.94
2023-04-29T09:01:42.286Z,100121.88
2023-04-29T09:04:18.715Z,100117.31
2023-04-29T09:06:46.878Z,100123.72
2023-04-29T09:09:15.399Z,100125.09
2023-04-29T09:11:42.402Z,100133.41
2023-04-29T09:14:09.584Z,100123.78
2023-04-29T09:16:38.266Z,100131.53
2023-04-29T09:19:05.544Z,100134.56
2023-04-29T09:21:32.580Z,100114.72
2023-04-29T09:24:02.412Z,100130.06
2023-04-29T09:26:42.982Z,100152.91
2023-04-29T09:29:18.433Z,100115.50
2023-04-29T09:31:46.813Z,100105.03
2023-04-29T09:34:14.752Z,100114.63
2023-04-29T09:36:47.956Z,100142.59
2023-04-29T09:39:21.229Z,100109.16
2023-04-29T09:41:54.144Z,100109.34
2023-04-29T09:44:32.225Z,100119.25
2023-04-29T09:47:10.223Z,100111.88
2023-04-29T09:49:43.271Z,100117.16
2023-04-29T09:52:13.005Z,100113.31
2023-04-29T09:54:42.091Z,100104.09
2023-04-29T09:57:11.417Z,100097.16
2023-04-29T09:59:41.564Z,100081.97
2023-04-29T10:02:20.840Z,100101.41
2023-04-29T10:04:58.303Z,100090.06
2023-04-29T10:07:28.131Z,100079.44
2023-04-29T10:09:56.138Z,100078.28
2023-04-29T10:12:24.020Z,100065.75
2023-04-29T10:15:13.889Z,100083.28
2023-04-29T10:17:52.648Z,100080.69
2023-04-29T10:20:25.234Z,100093.16
2023-04-29T10:22:56.718Z,100075.28
2023-04-29T10:25:26.276Z,100074.94
2023-04-29T10:27:55.288Z,100071.06
2023-04-29T10:30:22.738Z,100056.53
2023-04-29T10:32:52.809Z,100059.44
2023-04-29T10:35:25.558Z,100053.75
2023-04-29T10:37:54.277Z,100057.41
2023-04-29T10:40:58.258Z,100048.72
2023-04-29T10:43:26.551Z,100054.88
2023-04-29T10:46:27.056Z,100056.75
2023-04-29T10:49:02.644Z,100058.88
2023-04-29T10:51:44.993Z,100044.38
2023-04-29T10:54:17.598Z,100048.19
2023-04-29T10:56:50.293Z,100041.69
2023-04-29T10:59:43.088Z,100052.63
2023-04-29T11:02:12.926Z,100040.28
2023-04-29T11:05:10.182Z,100059.44
2023-04-29T11:07:37.361Z,100045.63
2023-04-29T11:10:07.356Z,100053.56
2023-04-29T11:12:34.350Z,100036.78
2023-04-29T11:15:05.063Z,100041.34
2023-04-29T11:17:38.713Z,100043.03
2023-04-29T11:20:18.520Z,100036.84
2023-04-29T11:22:52.251Z,100024.59
2023-04-29T11:25:19.274Z,100042.09
2023-04-29T11:27:49.165Z,100045.44
2023-04-29T11:30:16.987Z,100024.47
2023-04-29T11:32:44.132Z,100034.94
2023-04-29T11:35:16.977Z,100020.06
2023-04-29T11:37:46.687Z,100038.91
2023-04-29T11:40:15.412Z,100023.81
2023-04-29T11:42:46.661Z,100014.91
2023-04-29T11:45:15.235Z,100020.19
2023-04-29T11:47:46.970Z,100016.19
2023-04-29T11:50:17.858Z,100013.16
2023-04-29T11:52:47.994Z,100009.09
2023-04-29T11:55:15.185Z,100001.59
2023-04-29T11:57:42.726Z,100017.75
2023-04-29T12:00:14.448Z,99998.13
2023-04-29T12:02:46.546Z,100008.06
2023-04-29T12:05:16.120Z,100001.44
2023-04-29T12:07:43.803Z,99985.13
2023-04-29T12:10:12.371Z,99996.66
2023-04-29T12:12:47.439Z,99994.06
2023-04-29T12:15:15.127Z,99993.63
2023-04-29T12:17:43.621Z,99998.81
2023-04-29T12:20:12.044Z,99990.56
2023-04-29T12:22:39.584Z,99987.41
2023-04-29T12:25:07.910Z,99988.06
2023-04-29T12:27:37.178Z,99984.84
2023-04-29T12:30:09.594Z,99978.47
2023-04-29T12:32:37.562Z,99988.56
2023-04-29T12:35:05.428Z,99978.41
2023-04-29T12:37:33.605Z,99984.63
2023-04-29T12:40:00.741Z,99985.66
2023-04-29T12:42:34.243Z,99985.00
2023-04-29T12:45:01.279Z,99984.56
2023-04-29T12:47:37.262Z,99973.63
2023-04-29T12:50:06.937Z,99988.03
2023-04-29T12:52:36.472Z,99987.00
2023-04-29T12:55:04.720Z,99980.88
2023-04-29T12:57:31.807Z,99966.06
2023-04-29T12:59:58.785Z,99972.44
2023-04-29T13:04:53.484Z,99958.66
2023-04-29T13:07:21.087Z,99963.38
2023-04-29T13:09:48.055Z,99959.94
2023-04-29T13:12:15.048Z,99970.09
2023-04-29T13:14:42.035Z,99954.81
2023-04-29T13:17:10.604Z,99955.59
2023-04-29T13:19:50.232Z,99957.22
2023-04-29T13:22:18.317Z,99956.50
2023-04-29T13:24:45.975Z,99957.69
2023-04-29T13:27:13.156Z,99955.91
2023-04-29T13:29:40.167Z,99949.50
2023-04-29T13:32:08.275Z,99947.56
2023-04-29T13:34:35.337Z,99954.41
2023-04-29T13:37:02.523Z,99945.72
2023-04-29T13:39:29.547Z,99939.47
2023-04-29T13:41:59.288Z,99938.91
2023-04-29T13:44:33.274Z,99945.16
2023-04-29T13:47:18.192Z,99945.09
2023-04-29T13:55:25.779Z,99948.88
2023-04-29T13:58:36.336Z,99957.13
2023-04-29T14:00:57.027Z,99946.31
2023-04-29T14:03:13.087Z,99943.53
2023-04-29T14:05:41.499Z,99940.81
2023-04-29T14:08:08.501Z,99930.34
2023-04-29T14:10:36.954Z,99933.09
2023-04-29T14:13:03.968Z,99949.06
2023-04-29T14:15:31.200Z,99934.53
2023-04-29T14:17:58.363Z,99934.31
2023-04-29T14:20:25.420Z,99934.69
2023-04-29T14:22:53.055Z,99926.72
2023-04-29T14:25:20.107Z,99954.25
2023-04-29T14:27:49.184Z,99934.75
2023-04-29T14:30:16.246Z,99928.81
2023-04-29T14:32:43.411Z,99931.25
2023-04-29T14:35:10.590Z,99929.25
2023-04-29T14:37:37.625Z,99929.25
2023-04-29T14:40:06.382Z,99927.47
2023-04-29T14:42:33.419Z,99922.50
2023-04-29T14:45:00.527Z,99926.78
2023-04-29T14:47:29.044Z,99918.84
2023-04-29T14:49:56.450Z,99925.81
2023-04-29T14:52:23.500Z,99919.75
2023-04-29T14:54:51.261Z,99918.84
2023-04-29T14:57:18.467Z,99920.00
2023-04-29T14:59:45.502Z,99926.38
2023-04-29T15:02:12.706Z,99920.19
2023-04-29T15:04:45.520Z,99913.81
2023-04-29T15:07:13.897Z,99924.34
2023-04-29T15:09:41.347Z,99921.66
2023-04-29T15:12:09.646Z,99920.53
2023-04-29T15:14:37.069Z,99918.19
2023-04-29T15:17:04.166Z,99911.91
2023-04-29T15:19:31.150Z,99916.22
2023-04-29T15:21:58.133Z,99915.25
2023-04-29T15:24:25.165Z,99908.41
2023-04-29T15:26:53.311Z,99914.47
2023-04-29T15:29:20.595Z,99912.66
2023-04-29T15:31:47.724Z,99910.09
2023-04-29T15:34:14.757Z,99913.81
2023-04-29T15:36:42.401Z,99913.00
2023-04-29T15:39:11.082Z,99909.50
2023-04-29T15:41:39.099Z,99917.44
2023-04-29T15:44:06.624Z,99919.25
2023-04-29T15:46:33.803Z,99904.94
2023-04-29T15:49:01.172Z,99912.16
2023-04-29T15:51:28.161Z,99919.41
2023-04-29T15:53:55.159Z,99912.25
2023-04-29T15:56:22.191Z,99903.22
2023-04-29T15:58:49.214Z,99907.75
2023-04-29T16:01:16.309Z,99896.13
2023-04-29T16:03:43.381Z,99909.53
2023-04-29T16:06:10.640Z,99899.66
2023-04-29T16:08:37.648Z,99907.72
2023-04-29T16:11:04.685Z,99905.06
2023-04-29T16:13:31.958Z,99896.25
2023-04-29T16:15:59.816Z,99908.59
2023-04-29T16:18:27.454Z,99906.81
2023-04-29T16:20:54.496Z,99915.84
2023-04-29T16:23:21.840Z,99915.91
2023-04-29T16:25:49.070Z,99916.84
2023-04-29T16:28:16.332Z,99909.81
2023-04-29T16:30:43.749Z,99909.69
2023-04-29T16:33:10.770Z,99904.41
2023-04-29T16:35:37.840Z,99917.78
2023-04-29T16:38:04.832Z,99923.19
2023-04-29T16:40:31.910Z,99926.66
2023-04-29T16:42:58.960Z,99925.91
2023-04-29T16:45:26.390Z,99926.81
2023-04-29T16:47:54.740Z,99919.59
2023-04-29T16:50:21.974Z,99925.09
2023-04-29T16:52:49.272Z,99932.25
2023-04-29T16:55:16.356Z,99930.47
2023-04-29T16:57:43.813Z,99937.56
2023-04-29T17:00:12.155Z,99941.13
2023-04-29T17:02:40.488Z,99940.25
2023-04-29T17:05:09.086Z,99944.66
2023-04-29T17:07:36.274Z,99939.34
2023-04-29T17:10:04.407Z,99947.34
2023-04-29T17:12:31.448Z,99949.13
2023-04-29T17:14:58.549Z,99953.63
2023-04-29T17:17:25.650Z,99950.94
2023-04-29T17:19:52.959Z,99949.13
2023-04-29T17:22:20.476Z,99947.34
2023-04-29T17:24:48.626Z,99951.00
2023-04-29T17:27:15.662Z,99951.84
2023-04-29T17:29:42.728Z,99945.66
2023-04-29T17:32:15.333Z,99948.31
2023-04-29T17:34:42.453Z,99945.66
2023-04-29T17:37:09.559Z,99947.47
2023-04-29T17:39:36.577Z,99954.56
2023-04-29T17:42:03.748Z,99950.13
2023-04-29T17:44:30.801Z,99954.56
2023-04-29T17:46:57.771Z,99957.22
2023-04-29T17:49:25.200Z,99951.94
2023-04-29T17:51:52.650Z,99959.06
2023-04-29T17:54:19.680Z,99953.72
2023-04-29T17:56:46.746Z,99959.06
2023-04-29T17:59:13.717Z,99957.28
2023-04-29T18:01:41.699Z,99958.19
2023-04-29T18:04:08.932Z,99959.09
2023-04-29T18:06:36.174Z,99962.66
2023-04-29T18:09:04.693Z,99954.66
2023-04-29T18:11:32.093Z,99964.41
2023-04-29T18:13:59.267Z,99968.00
2023-04-29T18:16:26.341Z,99971.53
2023-04-29T18:18:56.020Z,99968.88
2023-04-29T18:21:26.069Z,99974.19
2023-04-29T18:23:56.420Z,99971.56
2023-04-29T18:26:24.608Z,99976.84
2023-04-29T18:28:51.733Z,99973.31
2023-04-29T18:31:20.132Z,99979.53
2023-04-29T18:33:47.245Z,99972.44
2023-04-29T18:36:14.449Z,99973.31
2023-04-29T18:38:41.659Z,99976.88
2023-04-29T18:41:09.081Z,99978.66
2023-04-29T18:43:36.721Z,99978.66
2023-04-29T18:46:03.916Z,99974.19
2023-04-29T18:48:31.498Z,99980.41
2023-04-29T18:51:00.410Z,99985.78
2023-04-29T18:53:27.445Z,99983.97
2023-04-29T18:55:54.700Z,99983.09
2023-04-29T18:58:22.150Z,99992.88
2023-04-29T19:00:49.261Z,99998.13
2023-04-29T19:03:16.558Z,99986.59
2023-04-29T19:05:43.815Z,99993.75
2023-04-29T19:08:10.908Z,99994.59
2023-04-29T19:10:38.035Z,99995.53
2023-04-29T19:13:05.069Z,100003.47
2023-04-29T19:15:32.319Z,99999.03
2023-04-29T19:17:59.422Z,100007.03
2023-04-29T19:20:27.039Z,99998.16
2023-04-29T19:22:54.113Z,100003.47
2023-04-29T19:25:21.761Z,100006.13
2023-04-29T19:27:49.180Z,100000.78
2023-04-29T19:30:16.662Z,100006.13
2023-04-29T19:32:46.473Z,100002.56
2023-04-29T19:35:13.645Z,100006.13
2023-04-29T19:37:41.121Z,100000.81
2023-04-29T19:40:10.989Z,100010.56
2023-04-29T19:42:39.188Z,100007.03
2023-04-29T19:45:08.165Z,100004.38
2023-04-29T19:47:35.317Z,100005.13
2023-04-29T19:50:02.732Z,100014.00
2023-04-29T19:52:29.915Z,100007.78
2023-04-29T19:54:57.045Z,100014.00
2023-04-29T19:57:24.091Z,100003.31
2023-04-29T19:59:51.335Z,100016.63
2023-04-29T20:02:19.168Z,100010.38
2023-04-29T20:04:46.453Z,100016.66
2023-04-29T20:07:13.436Z,100013.91
2023-04-29T20:09:40.488Z,100006.84
2023-04-29T20:12:07.541Z,100009.50
2023-04-29T20:14:34.622Z,100011.25
2023-04-29T20:17:01.906Z,100007.66
2023-04-29T20:19:30.974Z,100008.56
2023-04-29T20:21:58.359Z,100013.84
2023-04-29T20:24:25.355Z,100004.94
2023-04-29T20:26:52.364Z,99997.88
2023-04-29T20:29:19.491Z,100003.22
2023-04-29T20:31:46.626Z,100000.59
2023-04-29T20:34:13.721Z,99999.63
2023-04-29T20:36:40.762Z,100002.31
2023-04-29T20:39:09.049Z,100004.94
2023-04-29T20:41:36.077Z,100003.25
2023-04-29T20:44:03.307Z,100000.47
2023-04-29T20:46:30.423Z,100002.22
2023-04-29T20:48:57.621Z,99998.66
2023-04-29T20:51:24.823Z,100002.25
2023-04-29T20:53:52.024Z,99989.84
2023-04-29T20:56:19.085Z,99991.56
2023-04-29T20:58:46.077Z,99992.47
2023-04-29T21:01:13.078Z,99994.22
2023-04-29T21:03:40.618Z,100000.34
2023-04-29T21:06:07.817Z,99994.06
2023-04-29T21:08:34.943Z,99996.84
2023-04-29T21:11:01.986Z,100000.19
2023-04-29T21:13:28.955Z,99993.94
2023-04-29T21:15:55.952Z,100005.38
2023-04-29T21:18:23.265Z,100000.03
2023-04-29T21:20:51.211Z,100003.66
2023-04-29T21:23:18.214Z,100003.59
2023-04-29T21:25:45.286Z,100006.25
2023-04-29T21:28:12.828Z,100009.66
2023-04-29T21:30:40.954Z,100006.09
2023-04-29T21:33:07.996Z,100009.63
2023-04-29T21:35:35.126Z,100002.53
2023-04-29T21:38:02.118Z,100003.38
2023-04-29T21:40:29.189Z,100005.22
2023-04-29T21:42:58.080Z,99999.78
2023-04-29T21:45:25.081Z,99999.63
2023-04-29T21:47:52.720Z,100007.56
2023-04-29T21:50:19.962Z,99998.72
2023-04-29T21:52:46.998Z,100007.47
2023-04-29T21:55:14.014Z,100004.03
2023-04-29T21:57:44.915Z,100007.44
2023-04-29T22:00:32.969Z,100006.56
2023-04-29T22:03:04.353Z,100009.16
2023-04-29T22:05:31.658Z,100006.31
2023-04-29T22:08:00.706Z,100008.09
2023-04-29T22:10:28.008Z,100009.88
2023-04-29T22:12:55.998Z,100011.63
2023-04-29T22:15:28.709Z,100009.16
2023-04-29T22:17:57.317Z,100009.88
2023-04-29T22:20:25.255Z,100011.00
2023-04-29T22:22:52.504Z,100009.16
2023-04-29T22:25:21.755Z,100011.81
2023-04-29T22:27:50.409Z,100016.31
2023-04-29T22:30:17.944Z,100019.84
2023-04-29T22:32:45.595Z,100011.00
2023-04-29T22:35:12.959Z,100014.53
2023-04-29T22:37:40.976Z,100018.09
2023-04-29T22:40:08.799Z,100011.97
2023-04-29T22:42:35.827Z,100011.00
2023-04-29T22:45:02.837Z,100011.00
2023-04-29T22:47:30.004Z,100015.41
2023-04-29T22:49:57.002Z,100018.06
2023-04-29T22:52:25.861Z,100008.34
2023-04-29T22:54:53.050Z,100016.41
2023-04-29T22:57:20.046Z,100014.47
2023-04-29T22:59:47.197Z,100018.78
2023-04-29T23:02:14.362Z,100029.44
2023-04-29T23:04:41.377Z,100021.44
2023-04-29T23:07:08.393Z,100012.53
2023-04-29T23:09:35.428Z,100019.53
2023-04-29T23:12:02.794Z,100014.75
2023-04-29T23:14:29.957Z,100016.53
2023-04-29T23:16:57.069Z,100020.22
2023-04-29T23:19:24.538Z,100015.66
2023-04-29T23:21:51.505Z,100008.63
2023-04-29T23:24:18.462Z,100009.41
2023-04-29T23:26:45.422Z,100009.28
2023-04-29T23:29:12.393Z,100006.53
2023-04-29T23:31:39.423Z,100006.66
2023-04-29T23:34:07.878Z,100014.69
2023-04-29T23:36:36.441Z,100010.97
2023-04-29T23:39:03.448Z,100014.59
2023-04-29T23:41:31.877Z,100010.25
2023-04-29T23:44:02.453Z,100010.03
2023-04-29T23:46:30.787Z,99999.50
2023-04-29T23:48:57.838Z,100006.59
2023-04-29T23:51:26.294Z,100006.78
2023-04-29T23:53:53.330Z,100005.84
2023-04-29T23:56:20.333Z,100001.22
2023-04-29T23:58:47.293Z,100003.13
